Time;durP1;ratioP1;P1;durP2;ratioP2;P2;SDS_P1;SDS_P2;PMS_P1;PMS_P2;Temp;Humidity;BMP_temperature;BMP_pressure;BME280_temperature;BME280_humidity;BME280_pressure;Samples;Min_cycle;Max_cycle;Signal;HPM_P1;HPM_P2
2021/06/20 00:01:21;;;;;;;9.53;7.93;;;;;;;;;;4993055;28;20190;-72
2021/06/20 00:04:25;;;;;;;9.30;7.83;;;;;;;;;;4993651;28;20178;-72
2021/06/20 00:07:29;;;;;;;8.50;7.00;;;;;;;;;;4993551;28;20225;-72
2021/06/20 00:10:37;;;;;;;12.17;7.37;;;;;;;;;;4986592;28;20645;-72
2021/06/20 00:13:41;;;;;;;8.03;7.20;;;;;;;;;;4993355;28;20641;-72
2021/06/20 00:16:45;;;;;;;7.67;6.97;;;;;;;;;;5003854;28;20217;-72
2021/06/20 00:19:50;;;;;;;7.97;7.17;;;;;;;;;;4996585;28;20195;-72
2021/06/20 00:22:54;;;;;;;7.90;7.10;;;;;;;;;;4997007;28;20206;-72
2021/06/20 00:26:23;;;;;;;7.17;6.57;;;;;;;;;;4978681;28;20669;-72
2021/06/20 00:29:27;;;;;;;9.10;7.67;;;;;;;;;;4994908;28;20214;-71
2021/06/20 00:32:31;;;;;;;8.37;7.57;;;;;;;;;;4997393;28;20183;-71
2021/06/20 00:35:36;;;;;;;9.30;7.70;;;;;;;;;;4996773;28;20193;-71
2021/06/20 00:38:40;;;;;;;8.60;7.23;;;;;;;;;;4977787;28;20179;-71
2021/06/20 00:41:44;;;;;;;8.07;7.37;;;;;;;;;;4977244;28;20183;-71
2021/06/20 00:44:50;;;;;;;9.73;7.67;;;;;;;;;;4977610;28;20194;-71
2021/06/20 00:47:56;;;;;;;10.17;7.90;;;;;;;;;;4977248;28;20230;-71
2021/06/20 00:51:00;;;;;;;10.70;8.57;;;;;;;;;;4977563;28;20183;-71
2021/06/20 00:54:04;;;;;;;9.17;8.37;;;;;;;;;;4976472;28;20198;-71
2021/06/20 00:57:08;;;;;;;9.73;8.50;;;;;;;;;;4977128;28;20563;-71
2021/06/20 01:00:13;;;;;;;9.73;8.73;;;;;;;;;;4977360;28;20198;-71
2021/06/20 01:03:17;;;;;;;11.17;8.50;;;;;;;;;;4987676;28;20183;-71
2021/06/20 01:06:22;;;;;;;9.53;8.40;;;;;;;;;;4976484;28;20285;-71
2021/06/20 01:09:26;;;;;;;13.03;8.97;;;;;;;;;;4986853;28;20187;-71
2021/06/20 01:12:30;;;;;;;9.63;8.60;;;;;;;;;;4987209;28;20194;-71
2021/06/20 01:15:35;;;;;;;9.93;8.87;;;;;;;;;;4976905;28;20182;-71
2021/06/20 01:18:40;;;;;;;9.37;8.50;;;;;;;;;;4976745;28;20198;-71
2021/06/20 01:21:44;;;;;;;9.70;8.80;;;;;;;;;;4986305;28;20194;-71
2021/06/20 01:24:54;;;;;;;9.40;8.50;;;;;;;;;;4976172;28;20677;-71
2021/06/20 01:28:04;;;;;;;10.40;9.00;;;;;;;;;;4976238;28;20559;-71
2021/06/20 01:31:12;;;;;;;9.87;8.90;;;;;;;;;;4975332;28;20195;-71
2021/06/20 01:34:16;;;;;;;10.40;8.67;;;;;;;;;;4975702;28;20186;-70
2021/06/20 01:37:20;;;;;;;13.40;9.60;;;;;;;;;;4975969;28;20580;-71
2021/06/20 01:40:24;;;;;;;10.00;9.00;;;;;;;;;;4976566;28;20205;-71
2021/06/20 01:43:28;;;;;;;9.67;8.70;;;;;;;;;;4976203;28;20186;-71
2021/06/20 01:46:33;;;;;;;10.20;9.30;;;;;;;;;;4976389;28;20214;-71
2021/06/20 01:49:37;;;;;;;10.13;8.70;;;;;;;;;;4986573;28;20195;-70
2021/06/20 01:52:41;;;;;;;11.40;9.07;;;;;;;;;;4957405;29;20183;-71
2021/06/20 01:55:47;;;;;;;10.53;9.00;;;;;;;;;;4971501;28;20190;-71
2021/06/20 01:58:51;;;;;;;13.23;8.50;;;;;;;;;;4986325;28;20187;-71
2021/06/20 02:01:55;;;;;;;10.17;9.17;;;;;;;;;;4985955;28;20527;-71
2021/06/20 02:04:59;;;;;;;11.47;8.70;;;;;;;;;;4986061;28;20190;-71
2021/06/20 02:08:04;;;;;;;11.37;8.43;;;;;;;;;;4976046;28;20222;-71
2021/06/20 02:11:10;;;;;;;9.80;8.80;;;;;;;;;;4975914;28;20523;-71
2021/06/20 02:14:16;;;;;;;10.37;8.97;;;;;;;;;;4975323;28;20182;-71
2021/06/20 02:17:20;;;;;;;9.77;8.70;;;;;;;;;;4985867;28;20218;-71
2021/06/20 02:20:25;;;;;;;11.37;10.17;;;;;;;;;;4975653;28;20301;-71
2021/06/20 02:23:29;;;;;;;16.00;9.57;;;;;;;;;;4975215;28;20205;-71
2021/06/20 02:26:33;;;;;;;10.00;9.07;;;;;;;;;;4975126;28;20234;-71
2021/06/20 02:29:38;;;;;;;10.30;9.20;;;;;;;;;;4975752;28;20183;-71
2021/06/20 02:32:43;;;;;;;13.27;9.50;;;;;;;;;;4978101;28;20764;-71
2021/06/20 02:35:47;;;;;;;11.20;9.20;;;;;;;;;;4956032;29;20207;-71
2021/06/20 02:38:51;;;;;;;10.00;9.10;;;;;;;;;;4975185;28;20187;-71
2021/06/20 02:41:56;;;;;;;14.20;10.60;;;;;;;;;;4974620;28;20202;-71
2021/06/20 02:45:01;;;;;;;11.47;10.13;;;;;;;;;;4975475;28;20190;-71
2021/06/20 02:48:07;;;;;;;14.03;11.00;;;;;;;;;;4974892;28;20233;-71
2021/06/20 02:51:12;;;;;;;10.87;9.77;;;;;;;;;;4974795;28;20672;-71
2021/06/20 02:54:16;;;;;;;10.30;9.30;;;;;;;;;;4974794;28;20198;-71
2021/06/20 02:57:25;;;;;;;10.63;9.63;;;;;;;;;;4974747;28;20693;-71
2021/06/20 03:00:29;;;;;;;11.40;10.30;;;;;;;;;;4974163;28;20179;-71
2021/06/20 03:03:33;;;;;;;11.33;9.97;;;;;;;;;;4984782;28;20209;-71
2021/06/20 03:06:38;;;;;;;12.43;9.77;;;;;;;;;;4974155;28;20222;-71
2021/06/20 03:09:42;;;;;;;11.23;9.77;;;;;;;;;;4974279;28;20222;-71
2021/06/20 03:12:47;;;;;;;12.03;10.73;;;;;;;;;;4985070;28;20186;-71
2021/06/20 03:15:51;;;;;;;10.60;9.60;;;;;;;;;;4973336;28;20194;-72
2021/06/20 03:18:55;;;;;;;10.97;9.90;;;;;;;;;;4974931;28;20174;-71
2021/06/20 03:22:00;;;;;;;11.57;10.37;;;;;;;;;;4974761;28;20182;-71
2021/06/20 03:25:05;;;;;;;10.87;9.77;;;;;;;;;;4974662;28;20198;-71
2021/06/20 03:28:10;;;;;;;10.77;9.77;;;;;;;;;;4974035;28;20234;-71
2021/06/20 03:31:17;;;;;;;10.03;9.23;;;;;;;;;;4984415;28;20559;-71
2021/06/20 03:34:22;;;;;;;10.47;9.43;;;;;;;;;;4973560;28;20191;-71
2021/06/20 03:37:28;;;;;;;12.57;10.27;;;;;;;;;;4965564;28;20223;-71
2021/06/20 03:40:34;;;;;;;10.70;9.53;;;;;;;;;;4958912;28;20202;-71
2021/06/20 03:43:41;;;;;;;10.80;9.80;;;;;;;;;;4973214;28;20199;-71
2021/06/20 03:46:45;;;;;;;14.00;11.17;;;;;;;;;;4974590;28;20227;-71
2021/06/20 03:49:49;;;;;;;10.83;9.73;;;;;;;;;;4973809;28;20585;-71
2021/06/20 03:52:54;;;;;;;11.73;10.57;;;;;;;;;;4974478;28;20183;-71
2021/06/20 03:55:59;;;;;;;15.87;9.93;;;;;;;;;;4978270;28;20194;-71
2021/06/20 03:59:08;;;;;;;15.23;10.63;;;;;;;;;;4978248;28;20547;-71
2021/06/20 04:02:12;;;;;;;16.80;11.47;;;;;;;;;;4978044;28;20201;-71
2021/06/20 04:05:16;;;;;;;12.03;10.50;;;;;;;;;;4977901;28;20205;-71
2021/06/20 04:08:20;;;;;;;12.17;10.87;;;;;;;;;;4978241;28;20248;-71
2021/06/20 04:11:26;;;;;;;11.23;10.13;;;;;;;;;;4976834;28;20262;-71
2021/06/20 04:14:31;;;;;;;12.90;11.57;;;;;;;;;;4977872;28;20193;-71
2021/06/20 04:17:35;;;;;;;13.40;12.00;;;;;;;;;;4978159;28;20712;-71
2021/06/20 04:20:39;;;;;;;13.87;11.13;;;;;;;;;;4977581;28;20198;-71
2021/06/20 04:23:44;;;;;;;12.20;10.87;;;;;;;;;;4977655;28;20661;-71
2021/06/20 04:26:49;;;;;;;12.50;11.30;;;;;;;;;;4988000;28;20237;-72
2021/06/20 04:29:53;;;;;;;11.47;10.37;;;;;;;;;;4977853;28;20233;-71
2021/06/20 04:32:59;;;;;;;13.13;11.10;;;;;;;;;;4977945;28;20186;-71
2021/06/20 04:36:03;;;;;;;14.20;12.20;;;;;;;;;;4977189;28;20194;-71
2021/06/20 04:39:08;;;;;;;13.20;12.00;;;;;;;;;;4977285;28;20206;-71
2021/06/20 04:42:12;;;;;;;13.27;11.97;;;;;;;;;;4977489;28;20189;-71
2021/06/20 04:45:17;;;;;;;14.00;12.57;;;;;;;;;;4977475;28;20190;-71
2021/06/20 04:48:21;;;;;;;14.27;12.63;;;;;;;;;;4976994;28;20735;-72
2021/06/20 04:51:28;;;;;;;13.07;11.77;;;;;;;;;;4977155;28;20198;-72
2021/06/20 04:54:35;;;;;;;17.67;12.90;;;;;;;;;;4971245;28;20194;-71
2021/06/20 04:57:39;;;;;;;15.20;13.60;;;;;;;;;;4987567;28;20225;-72
2021/06/20 05:00:43;;;;;;;13.30;11.87;;;;;;;;;;4975958;28;20202;-72
2021/06/20 05:03:48;;;;;;;14.80;12.63;;;;;;;;;;4987451;28;20652;-71
2021/06/20 05:06:52;;;;;;;15.30;13.30;;;;;;;;;;4975513;28;20237;-71
2021/06/20 05:09:56;;;;;;;14.33;12.60;;;;;;;;;;4976882;28;20229;-72
2021/06/20 05:13:01;;;;;;;14.93;13.43;;;;;;;;;;4976956;28;20190;-71
2021/06/20 05:16:05;;;;;;;12.80;11.63;;;;;;;;;;4977048;28;20190;-71
2021/06/20 05:19:11;;;;;;;15.87;13.37;;;;;;;;;;4987364;28;20545;-71
2021/06/20 05:22:17;;;;;;;16.30;14.27;;;;;;;;;;4986720;28;20205;-71
2021/06/20 05:25:21;;;;;;;13.07;11.87;;;;;;;;;;4975938;28;20205;-71
2021/06/20 05:28:25;;;;;;;16.33;13.70;;;;;;;;;;4972679;28;20240;-71
2021/06/20 05:31:29;;;;;;;15.03;13.33;;;;;;;;;;4973060;28;20182;-71
2021/06/20 05:34:34;;;;;;;13.80;12.50;;;;;;;;;;4972273;28;20198;-71
2021/06/20 05:37:38;;;;;;;13.97;12.67;;;;;;;;;;4969434;28;20269;-71
2021/06/20 05:40:43;;;;;;;15.73;13.07;;;;;;;;;;4982947;28;20198;-71
2021/06/20 05:43:47;;;;;;;13.70;12.40;;;;;;;;;;4971953;28;20190;-71
2021/06/20 05:46:51;;;;;;;13.53;12.30;;;;;;;;;;4972253;28;20601;-71
2021/06/20 05:49:55;;;;;;;14.43;11.93;;;;;;;;;;4963093;28;20579;-72
2021/06/20 05:52:59;;;;;;;14.53;13.07;;;;;;;;;;4953253;29;20202;-71
2021/06/20 05:56:04;;;;;;;14.20;12.97;;;;;;;;;;4953005;28;20203;-71
2021/06/20 05:59:09;;;;;;;14.60;13.10;;;;;;;;;;4967625;28;20202;-71
2021/06/20 06:02:13;;;;;;;14.57;12.47;;;;;;;;;;4971825;28;20263;-72
2021/06/20 06:05:18;;;;;;;13.07;11.43;;;;;;;;;;4972241;28;20190;-71
2021/06/20 06:08:22;;;;;;;13.87;12.57;;;;;;;;;;4971633;28;20230;-72
2021/06/20 06:11:27;;;;;;;13.63;12.43;;;;;;;;;;4971823;28;20206;-72
2021/06/20 06:14:31;;;;;;;14.83;12.37;;;;;;;;;;4970722;28;20198;-72
2021/06/20 06:17:36;;;;;;;12.20;11.10;;;;;;;;;;4981318;28;20590;-71
2021/06/20 06:20:41;;;;;;;13.80;12.07;;;;;;;;;;4971969;28;20575;-71
2021/06/20 06:23:45;;;;;;;15.00;11.57;;;;;;;;;;4970836;28;20207;-71
2021/06/20 06:26:49;;;;;;;14.27;12.73;;;;;;;;;;4971183;28;20284;-72
2021/06/20 06:29:54;;;;;;;16.73;13.30;;;;;;;;;;4971919;28;20725;-72
2021/06/20 06:32:58;;;;;;;14.73;12.83;;;;;;;;;;4971304;28;20218;-72
2021/06/20 06:36:02;;;;;;;16.20;13.10;;;;;;;;;;4952223;29;20206;-72
2021/06/20 06:39:06;;;;;;;19.33;13.00;;;;;;;;;;4951968;29;20810;-71
2021/06/20 06:42:10;;;;;;;15.13;13.60;;;;;;;;;;4964413;28;20187;-71
2021/06/20 06:45:16;;;;;;;16.80;13.00;;;;;;;;;;4971844;28;20202;-73
2021/06/20 06:48:21;;;;;;;18.70;12.50;;;;;;;;;;4970770;28;20257;-72
2021/06/20 06:51:25;;;;;;;15.53;12.73;;;;;;;;;;4981576;28;20554;-71
2021/06/20 06:54:29;;;;;;;17.70;12.20;;;;;;;;;;4952311;29;20187;-72
2021/06/20 06:57:34;;;;;;;19.03;11.40;;;;;;;;;;4952562;28;20233;-72
2021/06/20 07:00:38;;;;;;;17.47;11.30;;;;;;;;;;4952369;29;20662;-72
2021/06/20 07:03:42;;;;;;;18.77;10.80;;;;;;;;;;4969290;28;20221;-72
2021/06/20 07:07:03;;;;;;;18.03;9.67;;;;;;;;;;4970209;28;20249;-72
2021/06/20 07:10:08;;;;;;;23.60;9.40;;;;;;;;;;4971568;28;20211;-72
2021/06/20 07:13:12;;;;;;;24.20;9.83;;;;;;;;;;4971359;28;20190;-72
2021/06/20 07:16:17;;;;;;;21.77;8.60;;;;;;;;;;4971180;28;21593;-71
2021/06/20 07:19:21;;;;;;;22.37;8.07;;;;;;;;;;4971447;28;20662;-72
2021/06/20 07:22:28;;;;;;;26.80;8.27;;;;;;;;;;4971232;28;20182;-72
2021/06/20 07:25:33;;;;;;;20.13;7.63;;;;;;;;;;4970783;28;20190;-71
2021/06/20 07:28:38;;;;;;;22.53;8.23;;;;;;;;;;4970385;28;20195;-71
2021/06/20 07:31:43;;;;;;;24.40;7.80;;;;;;;;;;4971054;28;20721;-72
2021/06/20 07:34:51;;;;;;;30.40;8.07;;;;;;;;;;4971264;28;20186;-72
2021/06/20 07:37:55;;;;;;;23.80;7.80;;;;;;;;;;4981059;28;20218;-72
2021/06/20 07:40:59;;;;;;;22.23;7.13;;;;;;;;;;4974669;28;20191;-72
2021/06/20 07:44:03;;;;;;;26.80;8.13;;;;;;;;;;4981293;28;20543;-72
2021/06/20 07:47:07;;;;;;;22.37;7.67;;;;;;;;;;4970788;28;20246;-72
2021/06/20 07:50:13;;;;;;;25.53;6.90;;;;;;;;;;4970526;28;20210;-72
2021/06/20 07:53:18;;;;;;;25.40;8.33;;;;;;;;;;4970850;28;20195;-72
2021/06/20 07:56:22;;;;;;;25.70;7.83;;;;;;;;;;4970914;28;20186;-72
2021/06/20 07:59:26;;;;;;;31.73;7.20;;;;;;;;;;4971063;28;20179;-72
2021/06/20 08:02:31;;;;;;;26.73;7.07;;;;;;;;;;4970214;28;20677;-72
2021/06/20 08:05:35;;;;;;;20.87;6.60;;;;;;;;;;4970727;28;20191;-73
2021/06/20 08:08:39;;;;;;;20.63;6.87;;;;;;;;;;4971175;28;20986;-72
2021/06/20 08:11:44;;;;;;;24.53;6.87;;;;;;;;;;4970514;28;20187;-73
2021/06/20 08:14:48;;;;;;;24.83;7.73;;;;;;;;;;4972102;28;20519;-72
2021/06/20 08:18:09;;;;;;;18.77;6.00;;;;;;;;;;4973806;28;20215;-72
2021/06/20 08:21:14;;;;;;;20.30;5.40;;;;;;;;;;4988925;28;20229;-73
2021/06/20 08:24:19;;;;;;;15.13;4.83;;;;;;;;;;4993713;28;20175;-74
2021/06/20 08:27:23;;;;;;;20.53;5.20;;;;;;;;;;4972856;28;20219;-74
2021/06/20 08:30:28;;;;;;;21.13;6.07;;;;;;;;;;4973919;28;20211;-74
2021/06/20 08:33:32;;;;;;;18.87;5.70;;;;;;;;;;4973997;28;20179;-73
2021/06/20 08:36:37;;;;;;;18.60;5.57;;;;;;;;;;4974339;28;20570;-74
2021/06/20 08:39:41;;;;;;;23.47;5.77;;;;;;;;;;4968313;28;20191;-74
2021/06/20 08:42:46;;;;;;;17.93;5.70;;;;;;;;;;4966619;28;20203;-73
2021/06/20 08:45:51;;;;;;;17.40;5.23;;;;;;;;;;4957532;29;20188;-73
2021/06/20 08:48:56;;;;;;;19.47;5.57;;;;;;;;;;4966140;28;20208;-73
2021/06/20 08:52:02;;;;;;;20.87;5.10;;;;;;;;;;4976552;28;20186;-73
2021/06/20 08:55:08;;;;;;;19.77;5.33;;;;;;;;;;4977506;28;20178;-74
2021/06/20 08:58:23;;;;;;;17.50;4.87;;;;;;;;;;4962357;28;20219;-73
2021/06/20 09:01:27;;;;;;;25.53;5.10;;;;;;;;;;4946339;29;20176;-74
2021/06/20 09:04:34;;;;;;;20.67;5.03;;;;;;;;;;4976508;28;20195;-74
2021/06/20 09:07:40;;;;;;;20.80;5.10;;;;;;;;;;4967106;28;20220;-74
2021/06/20 09:10:45;;;;;;;23.60;5.20;;;;;;;;;;4957674;29;20211;-74
2021/06/20 09:13:49;;;;;;;24.85;5.25;;;;;;;;;;4957553;29;20186;-74
2021/06/20 09:16:54;;;;;;;24.08;5.55;;;;;;;;;;4968404;28;20220;-72
2021/06/20 09:20:00;;;;;;;21.98;5.50;;;;;;;;;;4957331;29;20204;-74
2021/06/20 09:23:08;;;;;;;24.10;5.13;;;;;;;;;;4964716;28;20195;-73
2021/06/20 09:26:13;;;;;;;18.13;4.97;;;;;;;;;;4976722;28;20187;-73
2021/06/20 09:29:34;;;;;;;21.48;5.10;;;;;;;;;;4972724;28;20194;-74
2021/06/20 09:32:40;;;;;;;18.83;4.97;;;;;;;;;;4956869;28;20206;-74
2021/06/20 09:35:48;;;;;;;28.90;4.95;;;;;;;;;;4956599;29;20186;-72
2021/06/20 09:38:52;;;;;;;23.63;5.43;;;;;;;;;;4967963;28;20644;-72
2021/06/20 09:42:05;;;;;;;18.58;5.18;;;;;;;;;;4976890;28;20195;-73
2021/06/20 09:45:10;;;;;;;26.88;5.68;;;;;;;;;;4956969;29;20203;-74
2021/06/20 09:48:29;;;;;;;29.30;5.90;;;;;;;;;;4971257;28;20239;-74
2021/06/20 09:51:34;;;;;;;23.90;5.22;;;;;;;;;;4972322;28;20226;-75
2021/06/20 09:54:51;;;;;;;20.33;5.45;;;;;;;;;;4956739;29;20204;-74
2021/06/20 09:57:59;;;;;;;21.73;5.10;;;;;;;;;;4963850;28;20227;-74
2021/06/20 10:01:17;;;;;;;25.73;5.55;;;;;;;;;;4971016;28;20192;-74
2021/06/20 10:04:21;;;;;;;25.05;5.40;;;;;;;;;;4972465;28;20538;-74
2021/06/20 10:07:27;;;;;;;23.75;5.45;;;;;;;;;;4974913;28;20572;-75
2021/06/20 10:10:31;;;;;;;23.40;5.25;;;;;;;;;;4974962;28;20207;-73
2021/06/20 10:13:36;;;;;;;21.02;4.55;;;;;;;;;;4955705;28;20195;-73
2021/06/20 10:16:48;;;;;;;20.80;4.63;;;;;;;;;;4960795;28;20585;-72
2021/06/20 10:19:55;;;;;;;27.05;5.03;;;;;;;;;;4950438;28;20204;-73
2021/06/20 10:23:01;;;;;;;21.48;4.88;;;;;;;;;;4975116;28;20211;-72
2021/06/20 10:26:08;;;;;;;25.90;5.60;;;;;;;;;;4969362;28;20225;-72
2021/06/20 10:29:20;;;;;;;28.50;5.57;;;;;;;;;;4956200;29;20211;-72
2021/06/20 10:32:26;;;;;;;30.20;5.05;;;;;;;;;;4951603;28;20184;-72
2021/06/20 10:35:30;;;;;;;29.35;5.35;;;;;;;;;;4956347;28;20196;-72
2021/06/20 10:38:38;;;;;;;23.65;4.72;;;;;;;;;;4956381;29;20554;-73
2021/06/20 10:41:43;;;;;;;27.52;5.47;;;;;;;;;;4946191;28;20195;-73
2021/06/20 10:44:53;;;;;;;25.42;4.97;;;;;;;;;;4970874;28;20190;-72
2021/06/20 10:47:59;;;;;;;23.08;5.20;;;;;;;;;;4975325;28;20219;-73
2021/06/20 10:51:04;;;;;;;28.98;5.13;;;;;;;;;;4975280;28;20218;-73
2021/06/20 10:54:09;;;;;;;29.63;5.90;;;;;;;;;;4973710;28;20567;-73
2021/06/20 10:57:13;;;;;;;27.63;5.60;;;;;;;;;;4955969;28;20223;-73
2021/06/20 11:00:29;;;;;;;21.70;5.30;;;;;;;;;;4958627;28;20187;-73
2021/06/20 11:03:34;;;;;;;29.95;5.28;;;;;;;;;;4963382;28;20225;-72
2021/06/20 11:06:38;;;;;;;25.75;5.60;;;;;;;;;;4962757;28;20223;-72
2021/06/20 11:09:42;;;;;;;30.15;5.43;;;;;;;;;;4974621;28;20187;-73
2021/06/20 11:12:53;;;;;;;27.40;5.00;;;;;;;;;;4974453;28;20195;-73
2021/06/20 11:16:13;;;;;;;23.63;5.90;;;;;;;;;;4959887;28;20196;-73
2021/06/20 11:19:21;;;;;;;20.15;5.63;;;;;;;;;;4968562;28;20215;-73
2021/06/20 11:22:26;;;;;;;23.02;5.53;;;;;;;;;;4972219;28;20203;-73
2021/06/20 11:25:30;;;;;;;24.35;4.90;;;;;;;;;;4969932;28;20199;-74
2021/06/20 11:28:34;;;;;;;28.00;5.72;;;;;;;;;;4974362;28;20199;-75
2021/06/20 11:31:51;;;;;;;25.58;5.70;;;;;;;;;;4955114;29;20219;-75
2021/06/20 11:34:58;;;;;;;29.85;5.10;;;;;;;;;;4955177;29;20663;-75
2021/06/20 11:38:02;;;;;;;25.45;5.25;;;;;;;;;;4955102;29;20223;-74
2021/06/20 11:41:12;;;;;;;32.97;5.43;;;;;;;;;;4955418;29;20660;-75
2021/06/20 11:44:18;;;;;;;20.13;4.78;;;;;;;;;;4943830;28;20187;-75
2021/06/20 11:47:29;;;;;;;22.92;5.05;;;;;;;;;;4954599;29;20215;-75
2021/06/20 11:50:34;;;;;;;30.23;5.70;;;;;;;;;;4970762;28;20187;-75
2021/06/20 11:53:38;;;;;;;23.35;4.90;;;;;;;;;;4974767;28;20183;-75
2021/06/20 11:56:45;;;;;;;27.63;5.22;;;;;;;;;;4974207;28;20222;-75
2021/06/20 11:59:49;;;;;;;25.13;5.50;;;;;;;;;;4964143;28;20199;-75
2021/06/20 12:03:26;;;;;;;28.60;6.57;;;;;;;;;;4944902;28;20566;-75
2021/06/20 12:06:31;;;;;;;24.30;4.65;;;;;;;;;;4961239;28;20229;-75
2021/06/20 12:09:36;;;;;;;23.38;5.32;;;;;;;;;;4965182;28;20203;-75
2021/06/20 12:12:42;;;;;;;26.95;5.07;;;;;;;;;;4954983;29;20231;-75
2021/06/20 12:15:46;;;;;;;28.35;5.53;;;;;;;;;;4977331;28;20193;-75
2021/06/20 12:18:51;;;;;;;22.50;4.90;;;;;;;;;;4958540;29;20209;-75
2021/06/20 12:22:04;;;;;;;21.05;5.00;;;;;;;;;;4959174;28;20653;-75
2021/06/20 12:25:08;;;;;;;28.55;5.65;;;;;;;;;;4977539;28;20187;-75
2021/06/20 12:28:14;;;;;;;24.90;4.78;;;;;;;;;;4963285;28;20217;-75
2021/06/20 12:31:18;;;;;;;28.13;4.95;;;;;;;;;;4958414;28;20217;-75
2021/06/20 12:34:22;;;;;;;20.88;4.93;;;;;;;;;;4958574;29;20202;-74
2021/06/20 12:37:37;;;;;;;24.50;5.13;;;;;;;;;;4966529;28;20709;-76
2021/06/20 12:40:42;;;;;;;23.30;4.75;;;;;;;;;;4958390;28;20194;-75
2021/06/20 12:44:07;;;;;;;26.08;5.45;;;;;;;;;;4971142;28;20658;-75
2021/06/20 12:47:13;;;;;;;25.92;5.13;;;;;;;;;;4977421;28;20220;-75
2021/06/20 12:50:28;;;;;;;20.95;5.07;;;;;;;;;;4963769;28;20665;-76
2021/06/20 12:53:36;;;;;;;26.90;5.57;;;;;;;;;;4975601;28;20180;-74
2021/06/20 12:56:40;;;;;;;17.95;4.68;;;;;;;;;;4962549;28;20214;-75
2021/06/20 12:59:45;;;;;;;23.83;5.03;;;;;;;;;;4973747;28;20193;-74
2021/06/20 13:02:51;;;;;;;29.55;5.25;;;;;;;;;;4972808;28;20196;-74
2021/06/20 13:05:57;;;;;;;24.33;5.28;;;;;;;;;;4953616;28;20650;-75
2021/06/20 13:09:04;;;;;;;25.75;5.15;;;;;;;;;;4960036;28;20189;-75
2021/06/20 13:12:09;;;;;;;21.27;5.35;;;;;;;;;;4972245;28;20217;-75
2021/06/20 13:15:15;;;;;;;18.13;5.10;;;;;;;;;;4973386;28;20181;-75
2021/06/20 13:18:19;;;;;;;23.23;4.72;;;;;;;;;;4972838;28;20224;-76
2021/06/20 13:21:24;;;;;;;21.58;4.72;;;;;;;;;;4972342;28;20917;-75
2021/06/20 13:24:29;;;;;;;22.42;5.50;;;;;;;;;;4972181;28;20210;-75
2021/06/20 13:27:34;;;;;;;21.95;5.32;;;;;;;;;;4972002;28;20223;-75
2021/06/20 13:30:38;;;;;;;22.10;5.15;;;;;;;;;;4953995;29;20184;-75
2021/06/20 13:33:42;;;;;;;26.40;4.82;;;;;;;;;;4980151;28;20191;-75
2021/06/20 13:36:46;;;;;;;28.60;5.72;;;;;;;;;;4953282;28;20206;-75
2021/06/20 13:39:51;;;;;;;22.38;4.68;;;;;;;;;;4965058;28;20702;-75
2021/06/20 13:42:56;;;;;;;28.35;5.53;;;;;;;;;;4968842;28;20195;-75
2021/06/20 13:46:01;;;;;;;22.13;5.60;;;;;;;;;;4952738;29;20207;-75
2021/06/20 13:49:05;;;;;;;18.63;5.10;;;;;;;;;;4958315;28;20206;-75
2021/06/20 13:52:09;;;;;;;23.05;5.30;;;;;;;;;;4972678;28;20211;-75
2021/06/20 13:55:16;;;;;;;25.58;5.38;;;;;;;;;;4941884;29;20725;-75
2021/06/20 13:58:20;;;;;;;24.15;5.35;;;;;;;;;;4941026;29;20223;-75
2021/06/20 14:01:25;;;;;;;20.05;4.90;;;;;;;;;;4953156;29;20176;-75
2021/06/20 14:04:29;;;;;;;30.70;5.50;;;;;;;;;;4953099;29;20203;-75
2021/06/20 14:07:35;;;;;;;24.42;4.82;;;;;;;;;;4952992;28;20230;-75
2021/06/20 14:10:39;;;;;;;19.33;5.43;;;;;;;;;;4971879;28;20210;-75
2021/06/20 14:13:44;;;;;;;24.60;5.28;;;;;;;;;;4971265;28;20547;-75
2021/06/20 14:16:49;;;;;;;18.13;4.60;;;;;;;;;;4972947;28;20217;-75
2021/06/20 14:19:53;;;;;;;19.50;5.13;;;;;;;;;;5016209;22;20232;-73
2021/06/20 14:22:57;;;;;;;24.13;5.63;;;;;;;;;;5034284;28;20183;-72
2021/06/20 14:26:01;;;;;;;21.70;5.13;;;;;;;;;;5034429;28;20195;-72
2021/06/20 14:29:05;;;;;;;23.23;5.30;;;;;;;;;;5014949;28;20177;-72
2021/06/20 14:32:09;;;;;;;24.55;5.63;;;;;;;;;;5015074;28;20213;-72
2021/06/20 14:35:13;;;;;;;20.88;5.35;;;;;;;;;;5014683;28;20209;-73
2021/06/20 14:38:17;;;;;;;23.95;4.88;;;;;;;;;;5014286;28;20220;-72
2021/06/20 14:41:23;;;;;;;20.00;4.97;;;;;;;;;;5025062;28;20182;-72
2021/06/20 14:44:26;;;;;;;15.90;4.90;;;;;;;;;;5014894;28;20182;-72
2021/06/20 14:47:31;;;;;;;27.63;5.78;;;;;;;;;;5014265;28;20214;-72
2021/06/20 14:50:36;;;;;;;25.15;5.57;;;;;;;;;;5013997;28;20182;-72
2021/06/20 14:53:40;;;;;;;25.25;5.53;;;;;;;;;;5010657;28;20194;-73
2021/06/20 14:56:44;;;;;;;23.50;5.25;;;;;;;;;;4994079;28;20218;-73
2021/06/20 14:59:50;;;;;;;23.95;5.07;;;;;;;;;;4994800;28;20190;-72
2021/06/20 15:02:54;;;;;;;22.17;5.30;;;;;;;;;;4994618;28;20183;-73
2021/06/20 15:05:59;;;;;;;22.73;5.57;;;;;;;;;;4994323;28;20178;-72
2021/06/20 15:09:03;;;;;;;18.80;5.10;;;;;;;;;;5006599;28;20182;-72
2021/06/20 15:12:08;;;;;;;18.83;5.07;;;;;;;;;;5013939;28;20221;-72
2021/06/20 15:15:13;;;;;;;23.92;5.25;;;;;;;;;;5004859;28;20194;-73
2021/06/20 15:18:19;;;;;;;22.75;5.68;;;;;;;;;;5010766;28;20222;-72
2021/06/20 15:21:24;;;;;;;19.10;5.05;;;;;;;;;;5009662;28;20549;-73
2021/06/20 15:24:28;;;;;;;25.30;5.40;;;;;;;;;;5006018;28;20640;-73
2021/06/20 15:27:32;;;;;;;20.38;5.05;;;;;;;;;;5004757;28;20218;-73
2021/06/20 15:30:40;;;;;;;22.60;4.93;;;;;;;;;;5009097;28;20190;-73
2021/06/20 15:33:44;;;;;;;17.55;4.60;;;;;;;;;;5002121;28;20561;-73
2021/06/20 15:36:48;;;;;;;20.98;5.32;;;;;;;;;;5001188;28;20213;-73
2021/06/20 15:39:52;;;;;;;20.40;4.80;;;;;;;;;;5011045;28;20190;-73
2021/06/20 15:42:59;;;;;;;18.33;4.70;;;;;;;;;;5013900;28;20177;-73
2021/06/20 15:46:06;;;;;;;21.52;5.32;;;;;;;;;;5001514;28;20198;-73
2021/06/20 15:49:10;;;;;;;22.58;4.90;;;;;;;;;;5012642;28;20557;-73
2021/06/20 15:52:16;;;;;;;22.13;4.93;;;;;;;;;;5012673;28;20225;-73
2021/06/20 15:55:21;;;;;;;24.58;5.63;;;;;;;;;;4994294;28;20185;-73
2021/06/20 15:58:25;;;;;;;20.67;5.18;;;;;;;;;;5004244;28;20216;-72
2021/06/20 16:01:30;;;;;;;25.20;5.57;;;;;;;;;;4993648;28;20201;-73
2021/06/20 16:04:34;;;;;;;22.55;5.53;;;;;;;;;;4993854;28;20621;-72
2021/06/20 16:07:39;;;;;;;24.17;5.25;;;;;;;;;;5003932;28;20222;-72
2021/06/20 16:10:43;;;;;;;22.55;5.15;;;;;;;;;;4993871;28;20183;-74
2021/06/20 16:13:51;;;;;;;20.42;5.05;;;;;;;;;;4993997;28;20214;-72
2021/06/20 16:16:55;;;;;;;19.95;5.10;;;;;;;;;;4993860;28;20221;-73
2021/06/20 16:20:00;;;;;;;22.25;5.60;;;;;;;;;;4993500;28;20200;-72
2021/06/20 16:23:04;;;;;;;26.20;5.50;;;;;;;;;;4994006;28;20504;-72
2021/06/20 16:26:09;;;;;;;24.73;5.20;;;;;;;;;;4992684;28;20183;-72
2021/06/20 16:29:13;;;;;;;14.98;4.47;;;;;;;;;;5002039;28;20195;-73
2021/06/20 16:32:19;;;;;;;22.75;5.07;;;;;;;;;;4993366;28;20220;-72
2021/06/20 16:35:23;;;;;;;19.48;5.20;;;;;;;;;;4993920;28;20202;-73
2021/06/20 16:38:28;;;;;;;25.08;6.07;;;;;;;;;;5002009;28;20218;-73
2021/06/20 16:41:32;;;;;;;20.83;5.65;;;;;;;;;;5013249;28;20632;-73
2021/06/20 16:44:36;;;;;;;17.75;5.80;;;;;;;;;;5009507;28;20194;-73
2021/06/20 16:47:41;;;;;;;21.35;5.47;;;;;;;;;;4994136;28;20562;-73
2021/06/20 16:50:45;;;;;;;24.10;5.45;;;;;;;;;;4992578;28;20186;-72
2021/06/20 16:53:50;;;;;;;17.52;5.43;;;;;;;;;;5004361;28;20211;-72
2021/06/20 16:56:54;;;;;;;24.25;5.63;;;;;;;;;;4993114;28;20212;-72
2021/06/20 16:59:59;;;;;;;23.48;5.63;;;;;;;;;;5012760;28;20204;-72
2021/06/20 17:03:03;;;;;;;24.67;5.78;;;;;;;;;;5025291;28;20190;-73
2021/06/20 17:06:07;;;;;;;20.33;5.85;;;;;;;;;;5011682;28;20644;-73
2021/06/20 17:09:13;;;;;;;21.15;5.63;;;;;;;;;;5023484;28;20552;-73
2021/06/20 17:12:17;;;;;;;22.33;5.30;;;;;;;;;;5006062;28;20196;-73
2021/06/20 17:15:21;;;;;;;20.33;5.47;;;;;;;;;;5012791;28;20180;-73
2021/06/20 17:18:25;;;;;;;22.85;5.10;;;;;;;;;;5011871;28;20227;-73
2021/06/20 17:21:30;;;;;;;26.13;5.60;;;;;;;;;;5009536;28;20194;-73
2021/06/20 17:24:36;;;;;;;28.10;6.10;;;;;;;;;;4994003;28;20180;-73
2021/06/20 17:27:40;;;;;;;28.65;5.97;;;;;;;;;;5012343;28;20221;-73
2021/06/20 17:30:44;;;;;;;28.10;5.97;;;;;;;;;;5005208;28;20662;-73
2021/06/20 17:33:49;;;;;;;23.25;6.05;;;;;;;;;;4999703;28;20209;-73
2021/06/20 17:36:54;;;;;;;18.73;5.28;;;;;;;;;;5010520;28;20225;-73
2021/06/20 17:39:58;;;;;;;30.70;6.07;;;;;;;;;;4991759;28;20560;-73
2021/06/20 17:43:03;;;;;;;20.67;5.68;;;;;;;;;;5001471;28;20187;-73
2021/06/20 17:46:09;;;;;;;25.60;5.55;;;;;;;;;;5010486;28;20199;-73
2021/06/20 17:49:13;;;;;;;24.23;5.35;;;;;;;;;;5003152;28;20190;-73
2021/06/20 17:52:17;;;;;;;22.63;5.78;;;;;;;;;;4992173;28;20186;-73
2021/06/20 17:55:22;;;;;;;25.17;5.75;;;;;;;;;;5008683;28;20197;-73
2021/06/20 17:58:27;;;;;;;19.15;5.50;;;;;;;;;;5012112;28;20217;-73
2021/06/20 18:01:31;;;;;;;27.35;6.20;;;;;;;;;;5011606;28;20193;-73
2021/06/20 18:04:35;;;;;;;26.88;5.78;;;;;;;;;;5011381;28;20533;-73
2021/06/20 18:07:44;;;;;;;20.77;4.63;;;;;;;;;;5010961;28;20221;-72
2021/06/20 18:10:48;;;;;;;18.70;5.33;;;;;;;;;;5012648;28;20206;-74
2021/06/20 18:13:53;;;;;;;25.07;5.67;;;;;;;;;;5010328;28;20211;-73